Fredericksburg, VA

2:01 PM EST on February 21, 2018 (GMT -0500)
Shannon

Weather History for KEZF - December, 2012

Change the Weather History Date:

Thursday, December 27, 2012

  Actual Average (KNYG) Record (KNYG)
Temperature  
Mean Temperature 40 °F -  
Max Temperature 47 °F 42 °F 73 °F (2015)
Min Temperature 32 °F 27 °F 19 °F (1998)
Degree Days  
Heating Degree Days 25    
Moisture  
Dew Point 31 °F    
Average Humidity 70    
Maximum Humidity 95    
Minimum Humidity 47    
Precipitation  
Precipitation 0.01 in - - ()
Sea Level Pressure  
Sea Level Pressure 29.78 in    
Wind  
Wind Speed 9 mph (WNW)    
Max Wind Speed 20 mph    
Max Gust Speed 29 mph    
Visibility 10 miles    
Events Rain    
Averages and records for this station are not official NWS values.
T = Trace of Precipitation, MM = Missing Value Source: NWS Daily Summary

Daily Weather History Graph

Daily Weather History Graph

Search for Another Location

Airport or City:

Trip Planner

Search our weather history database for the weather conditions in past years. The results will help you decide how hot, cold, wet, or windy it might be!

Date:

Astronomy

Dec. 27, 2012 Rise Set
Actual Time 7:25 AM EST 4:56 PM EST
Civil Twilight 6:55 AM EST 5:26 PM EST
Nautical Twilight 6:22 AM EST 5:59 PM EST
Astronomical Twilight 5:50 AM EST 6:31 PM EST
Moon 4:37 PM EST (12/27) 6:35 AM EST (12/27)
Length of Visible Light 10h 30m
Length of Day
9h 31m
Full, 100% of the Moon is Illuminated
Dec 27
Full
Dec 28
Full
Jan 4
Last Quarter
Jan 11
New
Jan 18
First Quarter

Hourly Weather History & Observations

Time (EST) Temp. Windchill Dew Point Humidity Pressure Visibility Wind Dir Wind Speed Gust Speed Precip Events Conditions
12:15 AM 39.2 °F 31.6 °F 37.4 °F 93% 29.46 in 10.0 mi WNW 12.7 mph 19.6 mph N/A   Light Drizzle
12:35 AM 39.2 °F 33.0 °F 37.6 °F 94% 29.47 in 10.0 mi West 9.2 mph - 0.01 in Rain Light Rain
12:55 AM 39.2 °F 33.6 °F 37.4 °F 93% 29.47 in 10.0 mi West 8.1 mph - 0.01 in   Mostly Cloudy
1:15 AM 38.8 °F 33.2 °F 37.4 °F 95% 29.47 in 10.0 mi WNW 8.1 mph - N/A   Light Drizzle
1:35 AM 38.5 °F 32.7 °F 36.9 °F 94% 29.49 in 10.0 mi WNW 8.1 mph - N/A   Scattered Clouds
1:55 AM 38.3 °F 33.2 °F 36.3 °F 93% 29.50 in 10.0 mi WNW 6.9 mph - N/A   Clear
2:15 AM 38.1 °F 31.7 °F 35.8 °F 91% 29.50 in 10.0 mi WNW 9.2 mph - N/A   Unknown
2:35 AM 37.9 °F 31.5 °F 35.6 °F 91% 29.51 in 10.0 mi West 9.2 mph - N/A   Clear
2:55 AM 37.4 °F 32.1 °F 35.1 °F 91% 29.53 in 10.0 mi West 6.9 mph - N/A   Clear
3:15 AM 36.9 °F 31.4 °F 35.4 °F 95% 29.54 in 10.0 mi WSW 6.9 mph - N/A   Scattered Clouds
3:35 AM 36.9 °F 32.2 °F 35.2 °F 94% 29.54 in 10.0 mi West 5.8 mph - N/A   Clear
3:55 AM 37.4 °F 31.4 °F 34.7 °F 90% 29.55 in 10.0 mi West 8.1 mph - N/A   Clear
4:15 AM 37.4 °F 31.4 °F 34.2 °F 88% 29.56 in 10.0 mi West 8.1 mph - N/A   Clear
4:35 AM 38.1 °F 32.3 °F 34.3 °F 86% 29.57 in 10.0 mi West 8.1 mph - N/A   Mostly Cloudy
4:55 AM 37.8 °F 33.3 °F 34.2 °F 87% 29.57 in 10.0 mi West 5.8 mph - N/A   Mostly Cloudy
5:15 AM 37.4 °F 31.4 °F 34.0 °F 87% 29.57 in 10.0 mi WNW 8.1 mph - N/A   Clear
5:35 AM 38.1 °F 33.7 °F 34.0 °F 85% 29.59 in 10.0 mi WNW 5.8 mph - N/A   Mostly Cloudy
5:55 AM 38.5 °F 34.1 °F 34.0 °F 84% 29.61 in 10.0 mi WNW 5.8 mph - N/A   Mostly Cloudy
6:15 AM 36.9 °F 33.1 °F 33.8 °F 89% 29.61 in 10.0 mi West 4.6 mph - N/A   Scattered Clouds
6:35 AM 36.7 °F - 33.3 °F 87% 29.63 in 10.0 mi Calm Calm - N/A   Clear
7:35 AM 34.9 °F 30.8 °F 33.3 °F 94% 29.67 in 10.0 mi West 4.6 mph - N/A   Scattered Clouds
7:55 AM 37.8 °F 33.3 °F 33.8 °F 86% 29.69 in 10.0 mi West 5.8 mph - N/A   Mostly Cloudy
8:15 AM 38.3 °F 35.9 °F 33.8 °F 84% 29.70 in 10.0 mi NNW 3.5 mph - N/A   Scattered Clouds
8:35 AM 40.1 °F 34.1 °F 32.4 °F 74% 29.72 in 10.0 mi NW 9.2 mph - N/A   Mostly Cloudy
8:55 AM 41.2 °F 36.0 °F 32.2 °F 70% 29.73 in 10.0 mi NW 8.1 mph - N/A   Mostly Cloudy
9:15 AM 43.0 °F 37.7 °F 31.6 °F 64% 29.74 in 10.0 mi NW 9.2 mph - N/A   Scattered Clouds
9:35 AM 43.9 °F 38.3 °F 31.6 °F 62% 29.76 in 10.0 mi NW 10.4 mph - N/A   Mostly Cloudy
9:55 AM 45.3 °F 41.1 °F 31.5 °F 58% 29.77 in 10.0 mi NW 8.1 mph 18.4 mph N/A   Overcast
10:15 AM 45.3 °F 39.7 °F 31.3 °F 58% 29.78 in 10.0 mi WNW 11.5 mph 18.4 mph N/A   Mostly Cloudy
10:35 AM 46.0 °F 40.2 °F 31.5 °F 57% 29.78 in 10.0 mi NW 12.7 mph 20.7 mph N/A   Mostly Cloudy
10:55 AM 46.4 °F 39.5 °F 30.2 °F 53% 29.80 in 10.0 mi WNW 17.3 mph 27.6 mph N/A   Mostly Cloudy
11:15 AM 46.2 °F 41.2 °F 30.0 °F 53% 29.80 in 10.0 mi NNW 10.4 mph 20.7 mph N/A   Overcast
11:35 AM 45.5 °F 38.1 °F 28.9 °F 52% 29.80 in 10.0 mi NW 18.4 mph 25.3 mph N/A   Mostly Cloudy
11:55 AM 46.2 °F 39.5 °F 28.2 °F 50% 29.81 in 10.0 mi NW 16.1 mph 28.8 mph N/A   Mostly Cloudy
12:15 PM 45.3 °F 40.1 °F 27.9 °F 51% 29.80 in 10.0 mi NW 10.4 mph 20.7 mph N/A   Overcast
12:35 PM 46.6 °F - 28.4 °F 49% 29.81 in 10.0 mi NW 19.6 mph 27.6 mph N/A   Mostly Cloudy
12:55 PM 46.2 °F 41.2 °F 28.0 °F 49% 29.81 in 10.0 mi NW 10.4 mph 20.7 mph N/A   Mostly Cloudy
1:15 PM 45.9 °F 38.5 °F 27.5 °F 49% 29.81 in 10.0 mi NNW 18.4 mph 26.5 mph N/A   Mostly Cloudy
1:35 PM 46.4 °F 39.8 °F 27.7 °F 48% 29.81 in 10.0 mi NW 16.1 mph 25.3 mph N/A   Scattered Clouds
1:55 PM 47.3 °F - 27.9 °F 47% 29.83 in 10.0 mi NW 17.3 mph 26.5 mph N/A   Clear
2:15 PM 46.9 °F - 27.5 °F 47% 29.84 in 10.0 mi NW 17.3 mph 25.3 mph N/A   Clear
2:35 PM 47.1 °F - 27.7 °F 47% 29.85 in 10.0 mi NW 15.0 mph 18.4 mph N/A   Clear
3:15 PM 45.9 °F 41.2 °F 28.0 °F 50% 29.87 in 10.0 mi NNW 9.2 mph - N/A   Clear
3:35 PM 44.6 °F 39.7 °F 27.3 °F 51% 29.88 in 10.0 mi NNW 9.2 mph 18.4 mph N/A   Clear
3:55 PM 44.4 °F 39.0 °F 27.5 °F 52% 29.89 in 10.0 mi NNW 10.4 mph - N/A   Clear
4:15 PM 43.9 °F 39.9 °F 27.5 °F 53% 29.90 in 10.0 mi NNW 6.9 mph 17.3 mph N/A   Clear
4:35 PM 42.8 °F 39.3 °F 27.5 °F 55% 29.91 in 10.0 mi NW 5.8 mph - N/A   Clear
4:55 PM 42.1 °F 37.1 °F 27.3 °F 56% 29.92 in 10.0 mi NW 8.1 mph - N/A   Clear
5:15 PM 41.2 °F 39.2 °F 27.3 °F 58% 29.93 in 10.0 mi WNW 3.5 mph - N/A   Clear
5:35 PM 40.5 °F 37.3 °F 27.5 °F 60% 29.94 in 10.0 mi WNW 4.6 mph - N/A   Clear
5:55 PM 40.1 °F 34.1 °F 27.1 °F 60% 29.95 in 10.0 mi NW 9.2 mph - N/A   Clear
6:15 PM 40.3 °F 37.1 °F 26.6 °F 58% 29.96 in 10.0 mi NW 4.6 mph - N/A   Clear
6:35 PM 39.9 °F 33.9 °F 26.2 °F 58% 29.96 in 10.0 mi NW 9.2 mph - N/A   Clear
6:55 PM 40.1 °F 36.9 °F 26.1 °F 57% 29.96 in 10.0 mi NW 4.6 mph - N/A   Clear
7:35 PM 39.0 °F 32.8 °F 26.4 °F 61% 29.98 in 10.0 mi NW 9.2 mph - N/A   Clear
7:55 PM 39.0 °F 35.7 °F 26.2 °F 60% 29.99 in 10.0 mi WNW 4.6 mph - N/A   Clear
8:55 PM 35.2 °F 29.5 °F 27.3 °F 73% 30.00 in 10.0 mi West 6.9 mph - N/A   Clear
9:15 PM 35.6 °F 29.9 °F 26.8 °F 70% 30.00 in 10.0 mi West 6.9 mph - N/A   Clear
9:35 PM 36.7 °F 29.9 °F 26.6 °F 67% 30.01 in 10.0 mi WNW 9.2 mph - N/A   Clear
9:55 PM 36.5 °F 31.0 °F 26.6 °F 67% 30.02 in 10.0 mi WNW 6.9 mph - N/A   Clear
10:15 PM 35.8 °F 29.4 °F 26.8 °F 70% 30.03 in 10.0 mi West 8.1 mph - N/A   Clear
10:35 PM 34.2 °F 29.0 °F 27.0 °F 75% 30.04 in 10.0 mi WSW 5.8 mph - N/A   Clear
10:55 PM 35.6 °F 31.7 °F 26.6 °F 70% 30.04 in 10.0 mi West 4.6 mph - N/A   Clear
11:15 PM 33.1 °F 27.7 °F 27.0 °F 78% 30.04 in 10.0 mi West 5.8 mph - N/A   Clear
11:35 PM 35.4 °F 29.7 °F 26.6 °F 70% 30.04 in 10.0 mi WNW 6.9 mph - N/A   Clear
11:55 PM 32.4 °F 26.0 °F 26.8 °F 80% 30.04 in 10.0 mi SE 6.9 mph - N/A   Clear